sensor_id;sensor_type;location;lat;lon;timestamp;P1;durP1;ratioP1;P2;durP2;ratioP2
15482;SDS011;7843;50.330;7.312;2022-11-11T00:01:01;12.05;;;5.50;;
15482;SDS011;7843;50.330;7.312;2022-11-11T00:03:29;9.50;;;4.77;;
15482;SDS011;7843;50.330;7.312;2022-11-11T00:06:04;9.30;;;4.97;;
15482;SDS011;7843;50.330;7.312;2022-11-11T00:08:33;9.50;;;5.35;;
15482;SDS011;7843;50.330;7.312;2022-11-11T00:11:01;10.00;;;4.70;;
15482;SDS011;7843;50.330;7.312;2022-11-11T00:13:29;9.43;;;4.87;;
15482;SDS011;7843;50.330;7.312;2022-11-11T00:16:31;7.90;;;4.15;;
15482;SDS011;7843;50.330;7.312;2022-11-11T00:18:50;6.88;;;4.45;;
15482;SDS011;7843;50.330;7.312;2022-11-11T00:21:35;9.23;;;4.83;;
15482;SDS011;7843;50.330;7.312;2022-11-11T00:24:25;9.00;;;4.35;;
15482;SDS011;7843;50.330;7.312;2022-11-11T00:27:12;8.35;;;4.47;;
15482;SDS011;7843;50.330;7.312;2022-11-11T00:29:39;9.02;;;4.22;;
15482;SDS011;7843;50.330;7.312;2022-11-11T00:32:10;12.88;;;4.80;;
15482;SDS011;7843;50.330;7.312;2022-11-11T00:34:50;8.30;;;4.40;;
15482;SDS011;7843;50.330;7.312;2022-11-11T00:37:35;8.23;;;3.87;;
15482;SDS011;7843;50.330;7.312;2022-11-11T00:40:02;8.82;;;3.55;;
15482;SDS011;7843;50.330;7.312;2022-11-11T00:42:30;7.43;;;4.10;;
15482;SDS011;7843;50.330;7.312;2022-11-11T00:44:56;7.15;;;3.75;;
15482;SDS011;7843;50.330;7.312;2022-11-11T00:47:23;6.57;;;3.92;;
15482;SDS011;7843;50.330;7.312;2022-11-11T00:50:13;9.30;;;3.53;;
15482;SDS011;7843;50.330;7.312;2022-11-11T00:53:09;8.20;;;4.00;;
15482;SDS011;7843;50.330;7.312;2022-11-11T00:55:36;6.95;;;3.72;;
15482;SDS011;7843;50.330;7.312;2022-11-11T00:58:03;7.78;;;4.13;;
15482;SDS011;7843;50.330;7.312;2022-11-11T01:00:30;7.45;;;3.72;;
15482;SDS011;7843;50.330;7.312;2022-11-11T01:02:57;9.10;;;3.83;;
15482;SDS011;7843;50.330;7.312;2022-11-11T01:05:24;7.78;;;3.53;;
15482;SDS011;7843;50.330;7.312;2022-11-11T01:07:51;9.25;;;4.40;;
15482;SDS011;7843;50.330;7.312;2022-11-11T01:10:19;9.33;;;4.30;;
15482;SDS011;7843;50.330;7.312;2022-11-11T01:13:05;7.45;;;3.35;;
15482;SDS011;7843;50.330;7.312;2022-11-11T01:15:40;6.70;;;3.78;;
15482;SDS011;7843;50.330;7.312;2022-11-11T01:18:09;6.32;;;3.67;;
15482;SDS011;7843;50.330;7.312;2022-11-11T01:20:37;8.00;;;4.45;;
15482;SDS011;7843;50.330;7.312;2022-11-11T01:23:04;10.57;;;4.13;;
15482;SDS011;7843;50.330;7.312;2022-11-11T01:25:35;9.10;;;4.53;;
15482;SDS011;7843;50.330;7.312;2022-11-11T01:28:03;10.00;;;4.40;;
15482;SDS011;7843;50.330;7.312;2022-11-11T01:30:32;8.60;;;4.53;;
15482;SDS011;7843;50.330;7.312;2022-11-11T01:33:00;7.82;;;3.95;;
15482;SDS011;7843;50.330;7.312;2022-11-11T01:35:27;7.28;;;3.88;;
15482;SDS011;7843;50.330;7.312;2022-11-11T01:37:55;7.57;;;4.10;;
15482;SDS011;7843;50.330;7.312;2022-11-11T01:40:22;8.32;;;4.15;;
15482;SDS011;7843;50.330;7.312;2022-11-11T01:42:49;6.50;;;3.65;;
15482;SDS011;7843;50.330;7.312;2022-11-11T01:48:29;7.25;;;3.47;;
15482;SDS011;7843;50.330;7.312;2022-11-11T01:51:19;6.88;;;3.53;;
15482;SDS011;7843;50.330;7.312;2022-11-11T01:54:09;12.18;;;4.00;;
15482;SDS011;7843;50.330;7.312;2022-11-11T01:56:41;6.55;;;3.70;;
15482;SDS011;7843;50.330;7.312;2022-11-11T01:59:11;6.70;;;3.58;;
15482;SDS011;7843;50.330;7.312;2022-11-11T02:01:42;7.80;;;3.08;;
15482;SDS011;7843;50.330;7.312;2022-11-11T02:04:10;6.50;;;4.10;;
15482;SDS011;7843;50.330;7.312;2022-11-11T02:06:56;4.30;;;3.08;;
15482;SDS011;7843;50.330;7.312;2022-11-11T02:09:27;5.90;;;3.22;;
15482;SDS011;7843;50.330;7.312;2022-11-11T02:11:55;5.97;;;3.60;;
15482;SDS011;7843;50.330;7.312;2022-11-11T02:14:45;6.13;;;3.22;;
15482;SDS011;7843;50.330;7.312;2022-11-11T02:17:15;11.10;;;3.90;;
15482;SDS011;7843;50.330;7.312;2022-11-11T02:19:49;5.50;;;3.40;;
15482;SDS011;7843;50.330;7.312;2022-11-11T02:22:32;7.05;;;3.50;;
15482;SDS011;7843;50.330;7.312;2022-11-11T02:25:06;6.17;;;3.63;;
15482;SDS011;7843;50.330;7.312;2022-11-11T02:27:36;5.97;;;3.40;;
15482;SDS011;7843;50.330;7.312;2022-11-11T02:30:06;7.38;;;3.70;;
15482;SDS011;7843;50.330;7.312;2022-11-11T02:32:41;8.85;;;3.80;;
15482;SDS011;7843;50.330;7.312;2022-11-11T02:37:59;8.10;;;3.45;;
15482;SDS011;7843;50.330;7.312;2022-11-11T02:43:30;6.18;;;3.10;;
15482;SDS011;7843;50.330;7.312;2022-11-11T02:45:58;8.25;;;3.70;;
15482;SDS011;7843;50.330;7.312;2022-11-11T02:48:26;11.55;;;3.97;;
15482;SDS011;7843;50.330;7.312;2022-11-11T02:50:53;4.53;;;2.88;;
15482;SDS011;7843;50.330;7.312;2022-11-11T02:53:20;6.37;;;3.10;;
15482;SDS011;7843;50.330;7.312;2022-11-11T02:55:48;6.15;;;2.90;;
15482;SDS011;7843;50.330;7.312;2022-11-11T02:58:15;7.95;;;3.55;;
15482;SDS011;7843;50.330;7.312;2022-11-11T03:00:42;7.35;;;3.22;;
15482;SDS011;7843;50.330;7.312;2022-11-11T03:03:09;6.22;;;3.30;;
15482;SDS011;7843;50.330;7.312;2022-11-11T03:05:36;7.10;;;3.33;;
15482;SDS011;7843;50.330;7.312;2022-11-11T03:08:04;7.85;;;3.28;;
15482;SDS011;7843;50.330;7.312;2022-11-11T03:10:31;6.70;;;3.33;;
15482;SDS011;7843;50.330;7.312;2022-11-11T03:12:57;5.40;;;3.13;;
15482;SDS011;7843;50.330;7.312;2022-11-11T03:15:24;5.38;;;2.70;;
15482;SDS011;7843;50.330;7.312;2022-11-11T03:17:51;5.68;;;3.17;;
15482;SDS011;7843;50.330;7.312;2022-11-11T03:20:18;4.82;;;2.90;;
15482;SDS011;7843;50.330;7.312;2022-11-11T03:23:08;7.30;;;3.30;;
15482;SDS011;7843;50.330;7.312;2022-11-11T03:25:36;5.75;;;3.30;;
15482;SDS011;7843;50.330;7.312;2022-11-11T03:30:41;5.25;;;3.03;;
15482;SDS011;7843;50.330;7.312;2022-11-11T03:33:10;10.10;;;3.55;;
15482;SDS011;7843;50.330;7.312;2022-11-11T03:35:37;6.68;;;3.60;;
15482;SDS011;7843;50.330;7.312;2022-11-11T03:38:05;4.45;;;3.00;;
15482;SDS011;7843;50.330;7.312;2022-11-11T03:40:42;5.50;;;3.63;;
15482;SDS011;7843;50.330;7.312;2022-11-11T03:43:10;5.28;;;2.97;;
15482;SDS011;7843;50.330;7.312;2022-11-11T03:45:37;8.52;;;3.60;;
15482;SDS011;7843;50.330;7.312;2022-11-11T03:48:05;9.57;;;3.80;;
15482;SDS011;7843;50.330;7.312;2022-11-11T03:50:32;5.75;;;3.33;;
15482;SDS011;7843;50.330;7.312;2022-11-11T03:52:59;5.90;;;2.75;;
15482;SDS011;7843;50.330;7.312;2022-11-11T03:55:26;11.60;;;3.87;;
15482;SDS011;7843;50.330;7.312;2022-11-11T03:57:53;6.40;;;3.88;;
15482;SDS011;7843;50.330;7.312;2022-11-11T04:00:21;6.38;;;3.45;;
15482;SDS011;7843;50.330;7.312;2022-11-11T04:02:49;7.57;;;4.40;;
15482;SDS011;7843;50.330;7.312;2022-11-11T04:05:35;8.03;;;3.93;;
15482;SDS011;7843;50.330;7.312;2022-11-11T04:08:20;6.60;;;3.67;;
15482;SDS011;7843;50.330;7.312;2022-11-11T04:11:07;10.80;;;4.40;;
15482;SDS011;7843;50.330;7.312;2022-11-11T04:13:38;9.52;;;4.63;;
15482;SDS011;7843;50.330;7.312;2022-11-11T04:16:28;8.00;;;4.53;;
15482;SDS011;7843;50.330;7.312;2022-11-11T04:18:55;9.93;;;4.50;;
15482;SDS011;7843;50.330;7.312;2022-11-11T04:21:40;8.55;;;3.47;;
15482;SDS011;7843;50.330;7.312;2022-11-11T04:24:11;7.53;;;3.75;;
15482;SDS011;7843;50.330;7.312;2022-11-11T04:27:02;8.15;;;3.42;;
15482;SDS011;7843;50.330;7.312;2022-11-11T04:29:31;8.30;;;3.85;;
15482;SDS011;7843;50.330;7.312;2022-11-11T04:31:59;10.17;;;3.90;;
15482;SDS011;7843;50.330;7.312;2022-11-11T04:34:49;7.20;;;3.57;;
15482;SDS011;7843;50.330;7.312;2022-11-11T04:37:18;6.45;;;3.22;;
15482;SDS011;7843;50.330;7.312;2022-11-11T04:39:45;7.45;;;3.65;;
15482;SDS011;7843;50.330;7.312;2022-11-11T04:42:30;5.40;;;3.13;;
15482;SDS011;7843;50.330;7.312;2022-11-11T04:44:58;6.93;;;4.00;;
15482;SDS011;7843;50.330;7.312;2022-11-11T04:47:56;8.73;;;4.28;;
15482;SDS011;7843;50.330;7.312;2022-11-11T04:50:31;10.75;;;4.30;;
15482;SDS011;7843;50.330;7.312;2022-11-11T04:52:58;9.13;;;4.30;;
15482;SDS011;7843;50.330;7.312;2022-11-11T04:55:26;9.32;;;4.13;;
15482;SDS011;7843;50.330;7.312;2022-11-11T04:58:11;9.07;;;3.33;;
15482;SDS011;7843;50.330;7.312;2022-11-11T05:00:38;6.93;;;3.85;;
15482;SDS011;7843;50.330;7.312;2022-11-11T05:03:05;7.82;;;4.18;;
15482;SDS011;7843;50.330;7.312;2022-11-11T05:05:50;8.77;;;4.13;;
15482;SDS011;7843;50.330;7.312;2022-11-11T05:08:38;6.88;;;4.00;;
15482;SDS011;7843;50.330;7.312;2022-11-11T05:11:27;10.10;;;3.97;;
15482;SDS011;7843;50.330;7.312;2022-11-11T05:13:56;7.40;;;3.67;;
15482;SDS011;7843;50.330;7.312;2022-11-11T05:19:29;11.40;;;3.88;;
15482;SDS011;7843;50.330;7.312;2022-11-11T05:22:15;8.40;;;3.53;;
15482;SDS011;7843;50.330;7.312;2022-11-11T05:24:43;7.05;;;3.80;;
15482;SDS011;7843;50.330;7.312;2022-11-11T05:27:29;9.20;;;3.70;;
15482;SDS011;7843;50.330;7.312;2022-11-11T05:29:55;8.05;;;4.10;;
15482;SDS011;7843;50.330;7.312;2022-11-11T05:32:22;6.63;;;3.53;;
15482;SDS011;7843;50.330;7.312;2022-11-11T05:34:49;7.75;;;3.70;;
15482;SDS011;7843;50.330;7.312;2022-11-11T05:37:16;10.25;;;3.53;;
15482;SDS011;7843;50.330;7.312;2022-11-11T05:39:43;8.50;;;4.13;;
15482;SDS011;7843;50.330;7.312;2022-11-11T05:42:10;8.32;;;3.50;;
15482;SDS011;7843;50.330;7.312;2022-11-11T05:44:37;8.25;;;4.57;;
15482;SDS011;7843;50.330;7.312;2022-11-11T05:47:04;9.38;;;3.85;;
15482;SDS011;7843;50.330;7.312;2022-11-11T05:49:31;6.97;;;3.58;;
15482;SDS011;7843;50.330;7.312;2022-11-11T05:51:57;7.82;;;3.30;;
15482;SDS011;7843;50.330;7.312;2022-11-11T05:54:24;10.02;;;4.25;;
15482;SDS011;7843;50.330;7.312;2022-11-11T05:56:51;6.45;;;3.72;;
15482;SDS011;7843;50.330;7.312;2022-11-11T05:59:18;8.85;;;4.10;;
15482;SDS011;7843;50.330;7.312;2022-11-11T06:01:45;5.85;;;3.00;;
15482;SDS011;7843;50.330;7.312;2022-11-11T06:04:12;7.25;;;3.35;;
15482;SDS011;7843;50.330;7.312;2022-11-11T06:06:42;5.28;;;3.40;;
15482;SDS011;7843;50.330;7.312;2022-11-11T06:09:08;7.03;;;3.77;;
15482;SDS011;7843;50.330;7.312;2022-11-11T06:11:35;7.90;;;4.13;;
15482;SDS011;7843;50.330;7.312;2022-11-11T06:14:02;9.10;;;3.95;;
15482;SDS011;7843;50.330;7.312;2022-11-11T06:16:29;7.85;;;3.70;;
15482;SDS011;7843;50.330;7.312;2022-11-11T06:18:56;6.57;;;3.47;;
15482;SDS011;7843;50.330;7.312;2022-11-11T06:21:24;5.88;;;3.03;;
15482;SDS011;7843;50.330;7.312;2022-11-11T06:23:51;7.70;;;3.92;;
15482;SDS011;7843;50.330;7.312;2022-11-11T06:26:18;6.18;;;3.08;;
15482;SDS011;7843;50.330;7.312;2022-11-11T06:28:46;6.70;;;3.30;;
15482;SDS011;7843;50.330;7.312;2022-11-11T06:31:24;8.70;;;4.07;;
15482;SDS011;7843;50.330;7.312;2022-11-11T06:33:52;6.00;;;3.30;;
15482;SDS011;7843;50.330;7.312;2022-11-11T06:36:19;6.68;;;3.10;;
15482;SDS011;7843;50.330;7.312;2022-11-11T06:38:47;9.68;;;3.83;;
15482;SDS011;7843;50.330;7.312;2022-11-11T06:41:13;8.73;;;3.92;;
15482;SDS011;7843;50.330;7.312;2022-11-11T06:43:43;8.52;;;3.92;;
15482;SDS011;7843;50.330;7.312;2022-11-11T06:46:15;7.93;;;3.83;;
15482;SDS011;7843;50.330;7.312;2022-11-11T06:48:47;5.72;;;3.30;;
15482;SDS011;7843;50.330;7.312;2022-11-11T06:51:13;6.55;;;3.10;;
15482;SDS011;7843;50.330;7.312;2022-11-11T06:53:41;5.37;;;3.00;;
15482;SDS011;7843;50.330;7.312;2022-11-11T06:56:08;7.15;;;3.50;;
15482;SDS011;7843;50.330;7.312;2022-11-11T06:58:37;4.90;;;2.70;;
15482;SDS011;7843;50.330;7.312;2022-11-11T07:01:04;7.00;;;3.88;;
15482;SDS011;7843;50.330;7.312;2022-11-11T07:03:32;6.18;;;3.30;;
15482;SDS011;7843;50.330;7.312;2022-11-11T07:06:00;4.65;;;2.92;;
15482;SDS011;7843;50.330;7.312;2022-11-11T07:08:27;5.68;;;3.25;;
15482;SDS011;7843;50.330;7.312;2022-11-11T07:10:54;6.13;;;3.10;;
15482;SDS011;7843;50.330;7.312;2022-11-11T07:13:21;8.57;;;3.38;;
15482;SDS011;7843;50.330;7.312;2022-11-11T07:15:47;5.90;;;3.00;;
15482;SDS011;7843;50.330;7.312;2022-11-11T07:18:14;7.15;;;3.60;;
15482;SDS011;7843;50.330;7.312;2022-11-11T07:20:41;5.67;;;3.23;;
15482;SDS011;7843;50.330;7.312;2022-11-11T07:23:08;7.22;;;3.78;;
15482;SDS011;7843;50.330;7.312;2022-11-11T07:25:35;9.15;;;4.25;;
15482;SDS011;7843;50.330;7.312;2022-11-11T07:28:01;5.45;;;3.60;;
15482;SDS011;7843;50.330;7.312;2022-11-11T07:30:28;8.23;;;4.15;;
15482;SDS011;7843;50.330;7.312;2022-11-11T07:32:55;9.30;;;4.10;;
15482;SDS011;7843;50.330;7.312;2022-11-11T07:35:22;5.87;;;3.23;;
15482;SDS011;7843;50.330;7.312;2022-11-11T07:37:49;7.53;;;3.63;;
15482;SDS011;7843;50.330;7.312;2022-11-11T07:40:16;10.10;;;4.72;;
15482;SDS011;7843;50.330;7.312;2022-11-11T07:42:43;8.85;;;3.80;;
15482;SDS011;7843;50.330;7.312;2022-11-11T07:45:11;7.97;;;4.05;;
15482;SDS011;7843;50.330;7.312;2022-11-11T07:47:38;8.38;;;4.00;;
15482;SDS011;7843;50.330;7.312;2022-11-11T07:50:08;7.60;;;4.10;;
15482;SDS011;7843;50.330;7.312;2022-11-11T07:52:35;7.70;;;4.43;;
15482;SDS011;7843;50.330;7.312;2022-11-11T07:55:03;5.53;;;3.40;;
15482;SDS011;7843;50.330;7.312;2022-11-11T07:57:31;9.65;;;4.65;;
15482;SDS011;7843;50.330;7.312;2022-11-11T07:59:57;7.20;;;3.53;;
15482;SDS011;7843;50.330;7.312;2022-11-11T08:02:24;8.30;;;4.22;;
15482;SDS011;7843;50.330;7.312;2022-11-11T08:04:51;8.07;;;4.05;;
15482;SDS011;7843;50.330;7.312;2022-11-11T08:07:20;12.25;;;4.18;;
15482;SDS011;7843;50.330;7.312;2022-11-11T08:09:48;10.88;;;4.47;;
15482;SDS011;7843;50.330;7.312;2022-11-11T08:12:14;9.25;;;4.47;;
15482;SDS011;7843;50.330;7.312;2022-11-11T08:15:00;7.30;;;4.13;;
15482;SDS011;7843;50.330;7.312;2022-11-11T08:17:36;7.53;;;4.03;;
15482;SDS011;7843;50.330;7.312;2022-11-11T08:20:07;8.23;;;4.00;;
15482;SDS011;7843;50.330;7.312;2022-11-11T08:22:38;7.30;;;3.20;;
15482;SDS011;7843;50.330;7.312;2022-11-11T08:25:07;9.68;;;4.32;;
15482;SDS011;7843;50.330;7.312;2022-11-11T08:27:36;9.65;;;3.90;;
15482;SDS011;7843;50.330;7.312;2022-11-11T08:30:03;9.02;;;3.80;;
15482;SDS011;7843;50.330;7.312;2022-11-11T08:32:31;7.95;;;4.03;;
15482;SDS011;7843;50.330;7.312;2022-11-11T08:34:58;7.43;;;3.60;;
15482;SDS011;7843;50.330;7.312;2022-11-11T08:37:26;6.75;;;3.70;;
15482;SDS011;7843;50.330;7.312;2022-11-11T08:39:53;9.98;;;3.85;;
15482;SDS011;7843;50.330;7.312;2022-11-11T08:42:20;7.95;;;3.60;;
15482;SDS011;7843;50.330;7.312;2022-11-11T08:44:46;9.15;;;4.22;;
15482;SDS011;7843;50.330;7.312;2022-11-11T08:47:13;10.90;;;3.80;;
15482;SDS011;7843;50.330;7.312;2022-11-11T08:49:40;11.98;;;3.53;;
15482;SDS011;7843;50.330;7.312;2022-11-11T08:52:06;7.03;;;3.45;;
15482;SDS011;7843;50.330;7.312;2022-11-11T08:54:33;9.18;;;4.03;;
15482;SDS011;7843;50.330;7.312;2022-11-11T08:57:00;6.80;;;3.53;;
15482;SDS011;7843;50.330;7.312;2022-11-11T08:59:27;6.88;;;3.25;;
15482;SDS011;7843;50.330;7.312;2022-11-11T09:01:53;7.65;;;3.40;;
15482;SDS011;7843;50.330;7.312;2022-11-11T09:04:20;8.25;;;3.53;;
15482;SDS011;7843;50.330;7.312;2022-11-11T09:07:07;8.15;;;3.55;;
15482;SDS011;7843;50.330;7.312;2022-11-11T09:09:35;7.93;;;3.28;;
15482;SDS011;7843;50.330;7.312;2022-11-11T09:12:02;7.17;;;3.27;;
15482;SDS011;7843;50.330;7.312;2022-11-11T09:14:29;9.38;;;3.50;;
15482;SDS011;7843;50.330;7.312;2022-11-11T09:16:55;7.95;;;3.40;;
15482;SDS011;7843;50.330;7.312;2022-11-11T09:19:22;7.77;;;3.93;;
15482;SDS011;7843;50.330;7.312;2022-11-11T09:21:49;7.50;;;3.08;;
15482;SDS011;7843;50.330;7.312;2022-11-11T09:24:18;7.53;;;3.72;;
15482;SDS011;7843;50.330;7.312;2022-11-11T09:26:48;6.72;;;3.65;;
15482;SDS011;7843;50.330;7.312;2022-11-11T09:29:15;6.45;;;3.17;;
15482;SDS011;7843;50.330;7.312;2022-11-11T09:31:42;7.30;;;3.35;;
15482;SDS011;7843;50.330;7.312;2022-11-11T09:34:11;5.15;;;3.08;;
15482;SDS011;7843;50.330;7.312;2022-11-11T09:36:38;7.30;;;3.50;;
15482;SDS011;7843;50.330;7.312;2022-11-11T09:39:05;7.57;;;3.50;;
15482;SDS011;7843;50.330;7.312;2022-11-11T09:41:35;7.53;;;3.67;;
15482;SDS011;7843;50.330;7.312;2022-11-11T09:44:41;5.25;;;3.10;;
15482;SDS011;7843;50.330;7.312;2022-11-11T09:47:30;6.93;;;3.33;;
15482;SDS011;7843;50.330;7.312;2022-11-11T09:50:24;8.03;;;4.47;;
15482;SDS011;7843;50.330;7.312;2022-11-11T09:52:56;6.10;;;3.50;;
15482;SDS011;7843;50.330;7.312;2022-11-11T09:55:30;7.13;;;2.97;;
15482;SDS011;7843;50.330;7.312;2022-11-11T09:58:05;8.97;;;3.47;;
15482;SDS011;7843;50.330;7.312;2022-11-11T10:00:36;6.65;;;2.88;;
15482;SDS011;7843;50.330;7.312;2022-11-11T10:08:24;7.85;;;3.25;;
15482;SDS011;7843;50.330;7.312;2022-11-11T10:10:56;5.72;;;2.95;;
15482;SDS011;7843;50.330;7.312;2022-11-11T10:13:35;4.50;;;2.33;;
15482;SDS011;7843;50.330;7.312;2022-11-11T10:16:08;5.70;;;2.45;;
15482;SDS011;7843;50.330;7.312;2022-11-11T10:21:22;5.90;;;2.60;;
15482;SDS011;7843;50.330;7.312;2022-11-11T10:24:40;5.40;;;2.20;;
15482;SDS011;7843;50.330;7.312;2022-11-11T10:27:15;5.50;;;2.55;;
15482;SDS011;7843;50.330;7.312;2022-11-11T10:29:46;5.10;;;2.30;;
15482;SDS011;7843;50.330;7.312;2022-11-11T10:32:19;4.60;;;2.03;;
15482;SDS011;7843;50.330;7.312;2022-11-11T10:34:50;4.63;;;1.65;;
15482;SDS011;7843;50.330;7.312;2022-11-11T10:37:19;4.45;;;2.15;;
15482;SDS011;7843;50.330;7.312;2022-11-11T10:42:43;4.60;;;1.90;;
15482;SDS011;7843;50.330;7.312;2022-11-11T10:45:20;3.67;;;1.88;;
15482;SDS011;7843;50.330;7.312;2022-11-11T10:47:57;3.47;;;1.73;;
15482;SDS011;7843;50.330;7.312;2022-11-11T10:51:05;4.60;;;1.90;;
15482;SDS011;7843;50.330;7.312;2022-11-11T10:59:01;4.30;;;1.83;;
15482;SDS011;7843;50.330;7.312;2022-11-11T11:01:49;4.13;;;1.70;;
15482;SDS011;7843;50.330;7.312;2022-11-11T11:04:33;3.15;;;1.65;;
15482;SDS011;7843;50.330;7.312;2022-11-11T11:07:05;3.75;;;2.28;;
15482;SDS011;7843;50.330;7.312;2022-11-11T11:12:19;3.70;;;2.00;;
15482;SDS011;7843;50.330;7.312;2022-11-11T11:14:50;7.28;;;3.00;;
15482;SDS011;7843;50.330;7.312;2022-11-11T11:17:23;3.95;;;2.33;;
15482;SDS011;7843;50.330;7.312;2022-11-11T11:20:06;13.27;;;5.27;;
15482;SDS011;7843;50.330;7.312;2022-11-11T11:22:48;4.00;;;2.28;;
15482;SDS011;7843;50.330;7.312;2022-11-11T11:25:21;5.72;;;2.55;;
15482;SDS011;7843;50.330;7.312;2022-11-11T11:27:48;6.37;;;3.07;;
15482;SDS011;7843;50.330;7.312;2022-11-11T11:30:21;4.72;;;2.25;;
15482;SDS011;7843;50.330;7.312;2022-11-11T11:35:46;4.07;;;1.90;;
15482;SDS011;7843;50.330;7.312;2022-11-11T11:38:13;3.72;;;2.00;;
15482;SDS011;7843;50.330;7.312;2022-11-11T11:40:49;6.15;;;2.40;;
15482;SDS011;7843;50.330;7.312;2022-11-11T11:45:53;6.75;;;2.40;;
15482;SDS011;7843;50.330;7.312;2022-11-11T11:51:13;4.82;;;2.05;;
15482;SDS011;7843;50.330;7.312;2022-11-11T11:56:36;2.42;;;1.38;;
15482;SDS011;7843;50.330;7.312;2022-11-11T12:04:30;3.63;;;1.50;;
15482;SDS011;7843;50.330;7.312;2022-11-11T12:10:22;3.30;;;1.70;;
15482;SDS011;7843;50.330;7.312;2022-11-11T12:13:09;4.03;;;2.00;;
15482;SDS011;7843;50.330;7.312;2022-11-11T12:15:39;4.38;;;2.03;;
15482;SDS011;7843;50.330;7.312;2022-11-11T12:21:15;3.03;;;1.52;;
15482;SDS011;7843;50.330;7.312;2022-11-11T12:26:17;3.30;;;2.03;;
15482;SDS011;7843;50.330;7.312;2022-11-11T12:34:56;3.83;;;1.58;;
15482;SDS011;7843;50.330;7.312;2022-11-11T12:37:40;3.42;;;1.27;;
15482;SDS011;7843;50.330;7.312;2022-11-11T12:45:46;4.18;;;1.45;;
15482;SDS011;7843;50.330;7.312;2022-11-11T13:01:54;1.88;;;1.10;;
15482;SDS011;7843;50.330;7.312;2022-11-11T13:04:26;3.92;;;1.60;;
15482;SDS011;7843;50.330;7.312;2022-11-11T13:15:10;3.45;;;1.17;;
15482;SDS011;7843;50.330;7.312;2022-11-11T13:17:37;2.17;;;1.10;;
15482;SDS011;7843;50.330;7.312;2022-11-11T13:20:38;1.67;;;0.90;;
15482;SDS011;7843;50.330;7.312;2022-11-11T13:23:07;1.43;;;0.90;;
15482;SDS011;7843;50.330;7.312;2022-11-11T13:25:38;2.38;;;1.08;;
15482;SDS011;7843;50.330;7.312;2022-11-11T13:30:56;1.75;;;1.10;;
15482;SDS011;7843;50.330;7.312;2022-11-11T13:33:44;2.55;;;1.10;;
15482;SDS011;7843;50.330;7.312;2022-11-11T13:36:15;3.08;;;1.10;;
15482;SDS011;7843;50.330;7.312;2022-11-11T13:38:47;3.17;;;1.10;;
15482;SDS011;7843;50.330;7.312;2022-11-11T13:41:19;3.13;;;1.10;;
15482;SDS011;7843;50.330;7.312;2022-11-11T13:44:03;2.72;;;1.20;;
15482;SDS011;7843;50.330;7.312;2022-11-11T13:49:09;1.60;;;0.90;;
15482;SDS011;7843;50.330;7.312;2022-11-11T13:51:59;3.03;;;1.20;;
15482;SDS011;7843;50.330;7.312;2022-11-11T13:57:03;3.17;;;1.27;;
15482;SDS011;7843;50.330;7.312;2022-11-11T13:59:43;2.63;;;1.10;;
15482;SDS011;7843;50.330;7.312;2022-11-11T14:05:33;2.22;;;1.30;;
15482;SDS011;7843;50.330;7.312;2022-11-11T14:20:45;4.68;;;1.38;;
15482;SDS011;7843;50.330;7.312;2022-11-11T14:25:44;3.47;;;1.27;;
15482;SDS011;7843;50.330;7.312;2022-11-11T14:28:28;2.67;;;1.42;;
15482;SDS011;7843;50.330;7.312;2022-11-11T14:39:00;2.35;;;1.60;;
15482;SDS011;7843;50.330;7.312;2022-11-11T14:41:47;5.50;;;1.60;;
15482;SDS011;7843;50.330;7.312;2022-11-11T14:55:13;3.95;;;1.90;;
15482;SDS011;7843;50.330;7.312;2022-11-11T15:00:21;4.05;;;2.20;;
15482;SDS011;7843;50.330;7.312;2022-11-11T15:05:45;3.72;;;1.42;;
15482;SDS011;7843;50.330;7.312;2022-11-11T15:11:27;5.00;;;2.10;;
15482;SDS011;7843;50.330;7.312;2022-11-11T15:22:23;4.57;;;1.70;;
15482;SDS011;7843;50.330;7.312;2022-11-11T15:31:30;5.05;;;1.67;;
15482;SDS011;7843;50.330;7.312;2022-11-11T15:37:05;5.57;;;2.53;;
15482;SDS011;7843;50.330;7.312;2022-11-11T15:42:11;4.65;;;2.28;;
15482;SDS011;7843;50.330;7.312;2022-11-11T15:44:43;5.67;;;2.07;;
15482;SDS011;7843;50.330;7.312;2022-11-11T15:47:11;5.93;;;2.13;;
15482;SDS011;7843;50.330;7.312;2022-11-11T15:49:43;2.05;;;1.60;;
15482;SDS011;7843;50.330;7.312;2022-11-11T15:54:48;4.03;;;1.80;;
15482;SDS011;7843;50.330;7.312;2022-11-11T15:59:59;3.08;;;1.45;;
15482;SDS011;7843;50.330;7.312;2022-11-11T16:02:29;4.95;;;1.70;;
15482;SDS011;7843;50.330;7.312;2022-11-11T16:04:59;3.13;;;1.90;;
15482;SDS011;7843;50.330;7.312;2022-11-11T16:07:36;6.38;;;2.05;;
15482;SDS011;7843;50.330;7.312;2022-11-11T16:10:09;3.60;;;1.87;;
15482;SDS011;7843;50.330;7.312;2022-11-11T16:12:50;3.50;;;2.13;;
15482;SDS011;7843;50.330;7.312;2022-11-11T16:18:14;4.87;;;2.57;;
15482;SDS011;7843;50.330;7.312;2022-11-11T16:21:19;2.63;;;1.60;;
15482;SDS011;7843;50.330;7.312;2022-11-11T16:23:37;3.92;;;2.38;;
15482;SDS011;7843;50.330;7.312;2022-11-11T16:26:06;5.97;;;2.83;;
15482;SDS011;7843;50.330;7.312;2022-11-11T16:28:52;14.48;;;5.97;;
15482;SDS011;7843;50.330;7.312;2022-11-11T16:33:47;16.58;;;6.90;;
15482;SDS011;7843;50.330;7.312;2022-11-11T16:36:14;11.07;;;5.72;;
15482;SDS011;7843;50.330;7.312;2022-11-11T16:38:40;6.22;;;3.95;;
15482;SDS011;7843;50.330;7.312;2022-11-11T16:41:27;4.93;;;3.20;;
15482;SDS011;7843;50.330;7.312;2022-11-11T16:43:57;7.50;;;3.47;;
15482;SDS011;7843;50.330;7.312;2022-11-11T16:49:24;14.02;;;7.88;;
15482;SDS011;7843;50.330;7.312;2022-11-11T16:51:55;14.07;;;8.67;;
15482;SDS011;7843;50.330;7.312;2022-11-11T16:54:33;9.98;;;6.80;;
15482;SDS011;7843;50.330;7.312;2022-11-11T16:57:03;11.52;;;5.93;;
15482;SDS011;7843;50.330;7.312;2022-11-11T17:02:08;5.30;;;3.80;;
15482;SDS011;7843;50.330;7.312;2022-11-11T17:04:44;7.05;;;3.28;;
15482;SDS011;7843;50.330;7.312;2022-11-11T17:07:32;7.38;;;3.28;;
15482;SDS011;7843;50.330;7.312;2022-11-11T17:12:36;8.70;;;2.90;;
15482;SDS011;7843;50.330;7.312;2022-11-11T17:15:04;4.68;;;2.97;;
15482;SDS011;7843;50.330;7.312;2022-11-11T17:17:35;6.15;;;2.90;;
15482;SDS011;7843;50.330;7.312;2022-11-11T17:20:05;5.22;;;3.00;;
15482;SDS011;7843;50.330;7.312;2022-11-11T17:22:32;5.68;;;3.08;;
15482;SDS011;7843;50.330;7.312;2022-11-11T17:24:59;8.73;;;3.13;;
15482;SDS011;7843;50.330;7.312;2022-11-11T17:27:28;5.55;;;3.10;;
15482;SDS011;7843;50.330;7.312;2022-11-11T17:29:56;4.47;;;3.13;;
15482;SDS011;7843;50.330;7.312;2022-11-11T17:32:23;6.85;;;3.70;;
15482;SDS011;7843;50.330;7.312;2022-11-11T17:34:49;5.65;;;3.35;;
15482;SDS011;7843;50.330;7.312;2022-11-11T17:37:16;6.57;;;3.47;;
15482;SDS011;7843;50.330;7.312;2022-11-11T17:39:43;5.32;;;3.00;;
15482;SDS011;7843;50.330;7.312;2022-11-11T17:42:10;10.48;;;3.42;;
15482;SDS011;7843;50.330;7.312;2022-11-11T17:44:37;6.50;;;3.30;;
15482;SDS011;7843;50.330;7.312;2022-11-11T17:47:03;7.78;;;3.63;;
15482;SDS011;7843;50.330;7.312;2022-11-11T17:49:30;6.85;;;4.05;;
15482;SDS011;7843;50.330;7.312;2022-11-11T17:52:17;7.60;;;3.73;;
15482;SDS011;7843;50.330;7.312;2022-11-11T17:54:44;7.05;;;3.72;;
15482;SDS011;7843;50.330;7.312;2022-11-11T17:57:10;4.37;;;3.40;;
15482;SDS011;7843;50.330;7.312;2022-11-11T17:59:37;6.88;;;4.13;;
15482;SDS011;7843;50.330;7.312;2022-11-11T18:02:04;5.72;;;3.63;;
15482;SDS011;7843;50.330;7.312;2022-11-11T18:04:31;5.03;;;3.17;;
15482;SDS011;7843;50.330;7.312;2022-11-11T18:06:57;5.40;;;2.80;;
15482;SDS011;7843;50.330;7.312;2022-11-11T18:09:24;4.90;;;3.30;;
15482;SDS011;7843;50.330;7.312;2022-11-11T18:11:51;4.75;;;3.20;;
15482;SDS011;7843;50.330;7.312;2022-11-11T18:14:17;5.20;;;2.63;;
15482;SDS011;7843;50.330;7.312;2022-11-11T18:16:44;4.43;;;2.65;;
15482;SDS011;7843;50.330;7.312;2022-11-11T18:19:11;5.72;;;2.20;;
15482;SDS011;7843;50.330;7.312;2022-11-11T18:21:38;6.93;;;2.80;;
15482;SDS011;7843;50.330;7.312;2022-11-11T18:24:07;5.20;;;3.28;;
15482;SDS011;7843;50.330;7.312;2022-11-11T18:26:35;5.95;;;3.75;;
15482;SDS011;7843;50.330;7.312;2022-11-11T18:29:06;12.02;;;4.20;;
15482;SDS011;7843;50.330;7.312;2022-11-11T18:31:33;7.90;;;4.23;;
15482;SDS011;7843;50.330;7.312;2022-11-11T18:34:00;8.07;;;4.40;;